Time;durP1;ratioP1;P1;durP2;ratioP2;P2;SDS_P1;SDS_P2;PMS_P1;PMS_P2;Temp;Humidity;BMP_temperature;BMP_pressure;BME280_temperature;BME280_humidity;BME280_pressure;Samples;Min_cycle;Max_cycle;Signal;HPM_P1;HPM_P2
2022/03/21 00:01:18;;;;;;;3.97;3.57;;;18.00;49.40;;;;;;5079693;28;20177;-18
2022/03/21 00:03:44;;;;;;;3.70;3.30;;;18.00;49.30;;;;;;5061691;28;20189;-17
2022/03/21 00:06:10;;;;;;;3.70;3.30;;;18.10;49.30;;;;;;5077481;28;20206;-16
2022/03/21 00:08:37;;;;;;;4.07;3.30;;;18.10;49.20;;;;;;5079182;28;20467;-15
2022/03/21 00:11:03;;;;;;;4.00;3.60;;;18.10;49.20;;;;;;5061902;28;20197;-17
2022/03/21 00:13:29;;;;;;;4.50;3.60;;;18.10;49.20;;;;;;5062069;28;20506;-17
2022/03/21 00:15:56;;;;;;;3.70;3.30;;;18.10;49.20;;;;;;5060969;28;20714;-17
2022/03/21 00:18:23;;;;;;;4.23;3.47;;;18.10;49.20;;;;;;5061489;28;20229;-17
2022/03/21 00:20:53;;;;;;;3.97;3.43;;;18.10;49.10;;;;;;5079023;28;20257;-16
2022/03/21 00:23:19;;;;;;;3.90;3.47;;;18.10;49.10;;;;;;5070498;28;20175;-16
2022/03/21 00:25:48;;;;;;;3.67;3.37;;;18.20;49.10;;;;;;5065018;28;20188;-16
2022/03/21 00:28:13;;;;;;;4.17;3.57;;;18.10;49.10;;;;;;5039240;28;20183;-16
2022/03/21 00:30:41;;;;;;;3.70;3.40;;;18.10;49.10;;;;;;5062937;28;20173;-16
2022/03/21 00:33:13;;;;;;;3.70;3.20;;;18.10;49.10;;;;;;5045418;28;20170;-15
2022/03/21 00:35:42;;;;;;;4.07;3.47;;;18.00;49.10;;;;;;5074005;28;20174;-16
2022/03/21 00:38:13;;;;;;;3.87;3.50;;;18.00;49.20;;;;;;5077719;28;20179;-17
2022/03/21 00:40:39;;;;;;;3.73;3.33;;;18.00;49.20;;;;;;5060043;28;20182;-17
2022/03/21 00:43:07;;;;;;;3.67;3.33;;;18.00;49.20;;;;;;5078750;28;20212;-18
2022/03/21 00:45:32;;;;;;;4.90;3.57;;;18.00;49.20;;;;;;5061222;28;20191;-16
2022/03/21 00:47:58;;;;;;;4.00;3.60;;;18.00;49.20;;;;;;5061426;28;20480;-17
2022/03/21 00:50:25;;;;;;;4.43;3.00;;;18.00;49.30;;;;;;5078793;28;20265;-15
2022/03/21 00:52:56;;;;;;;3.53;3.23;;;17.90;49.30;;;;;;5061193;28;20172;-18
2022/03/21 00:55:28;;;;;;;3.83;3.40;;;17.90;49.30;;;;;;5078547;28;20174;-16
2022/03/21 00:57:55;;;;;;;3.47;3.00;;;17.90;49.30;;;;;;5067373;28;20473;-17
2022/03/21 01:00:25;;;;;;;3.30;2.93;;;17.90;49.30;;;;;;5078543;28;20170;-16
2022/03/21 01:02:51;;;;;;;4.07;3.30;;;17.80;49.30;;;;;;5077861;28;20164;-17
2022/03/21 01:05:17;;;;;;;3.87;3.20;;;17.90;49.40;;;;;;5077460;28;20289;-17
2022/03/21 01:07:43;;;;;;;3.60;3.30;;;17.90;49.40;;;;;;5077715;28;20268;-17
2022/03/21 01:10:18;;;;;;;4.53;3.33;;;17.90;49.40;;;;;;5077867;28;20185;-16
2022/03/21 01:12:44;;;;;;;3.40;3.10;;;17.90;49.40;;;;;;5060352;28;20159;-18
2022/03/21 01:15:14;;;;;;;3.57;3.27;;;17.80;49.40;;;;;;5060401;28;20182;-15
2022/03/21 01:17:42;;;;;;;4.07;3.30;;;17.80;49.40;;;;;;5078169;28;20190;-16
2022/03/21 01:20:09;;;;;;;3.40;3.10;;;17.80;49.40;;;;;;5060499;28;20262;-16
2022/03/21 01:22:35;;;;;;;5.37;3.10;;;17.80;49.50;;;;;;5077393;28;20226;-17
2022/03/21 01:25:00;;;;;;;3.63;3.33;;;17.80;49.50;;;;;;5077495;28;20607;-16
2022/03/21 01:27:26;;;;;;;3.57;3.00;;;17.80;49.50;;;;;;5060097;28;20178;-15
2022/03/21 01:29:52;;;;;;;3.93;3.20;;;17.80;49.50;;;;;;5077266;28;20530;-17
2022/03/21 01:32:18;;;;;;;3.77;3.27;;;17.80;49.50;;;;;;5077905;28;20703;-16
2022/03/21 01:34:44;;;;;;;3.40;3.07;;;17.80;49.60;;;;;;5077259;28;20172;-19
2022/03/21 01:37:12;;;;;;;3.50;3.20;;;17.70;49.50;;;;;;5059242;28;20235;-17
2022/03/21 01:39:38;;;;;;;3.10;2.73;;;17.70;49.50;;;;;;5059546;28;20178;-16
2022/03/21 01:42:04;;;;;;;3.70;3.33;;;17.70;49.60;;;;;;5076943;28;20150;-16
2022/03/21 01:44:30;;;;;;;4.00;2.97;;;17.70;49.60;;;;;;5060185;28;20555;-18
2022/03/21 01:46:56;;;;;;;3.30;3.00;;;17.70;49.60;;;;;;5077140;28;20210;-17
2022/03/21 01:49:22;;;;;;;4.53;3.27;;;17.70;49.60;;;;;;5077789;28;20202;-16
2022/03/21 01:51:48;;;;;;;3.50;3.17;;;17.70;49.60;;;;;;5059847;28;20246;-17
2022/03/21 01:57:01;;;;;;;3.67;3.20;;;17.70;49.70;;;;;;5077706;28;20219;-15
2022/03/21 01:59:27;;;;;;;3.50;3.20;;;17.60;49.70;;;;;;5060124;28;20174;-16
2022/03/21 02:01:53;;;;;;;3.37;2.90;;;17.60;49.70;;;;;;5059865;28;20254;-15
2022/03/21 02:04:19;;;;;;;3.60;3.13;;;17.60;49.70;;;;;;5077030;28;20230;-15
2022/03/21 02:06:46;;;;;;;3.57;3.27;;;17.60;49.70;;;;;;5077484;28;20206;-15
2022/03/21 02:09:13;;;;;;;4.07;3.07;;;17.60;49.80;;;;;;5060548;28;20221;-15
2022/03/21 02:11:39;;;;;;;4.00;3.27;;;17.60;49.80;;;;;;5077325;28;20258;-18
2022/03/21 02:14:06;;;;;;;3.20;2.90;;;17.60;49.80;;;;;;5077796;28;20179;-16
2022/03/21 02:16:34;;;;;;;3.33;3.03;;;17.60;49.80;;;;;;5076953;28;20706;-15
2022/03/21 02:19:06;;;;;;;3.87;3.03;;;17.60;49.80;;;;;;5059489;28;20204;-17
2022/03/21 02:21:47;;;;;;;3.40;3.10;;;17.60;49.80;;;;;;5059416;28;20177;-16
2022/03/21 02:24:29;;;;;;;3.67;3.10;;;17.50;49.80;;;;;;5059744;28;20667;-18
2022/03/21 02:26:58;;;;;;;3.93;2.80;;;17.50;49.90;;;;;;5077335;28;20281;-17
2022/03/21 02:29:26;;;;;;;3.40;2.80;;;17.50;49.90;;;;;;5060155;28;20553;-14
2022/03/21 02:31:57;;;;;;;4.13;3.23;;;17.50;49.90;;;;;;5059680;28;20505;-15
2022/03/21 02:34:25;;;;;;;3.77;3.23;;;17.50;49.90;;;;;;5059974;28;20263;-17
2022/03/21 02:36:58;;;;;;;3.30;3.00;;;17.50;49.90;;;;;;5077547;28;20159;-15
2022/03/21 02:39:27;;;;;;;3.40;3.00;;;17.50;49.90;;;;;;5076802;28;20175;-16
2022/03/21 02:41:53;;;;;;;3.10;2.77;;;17.40;49.90;;;;;;5059157;28;20681;-16
2022/03/21 02:44:18;;;;;;;3.33;3.03;;;17.40;50.00;;;;;;5077189;28;20169;-15
2022/03/21 02:46:45;;;;;;;3.30;3.00;;;17.40;50.00;;;;;;5059177;28;20207;-16
2022/03/21 02:49:14;;;;;;;3.30;2.90;;;17.40;50.00;;;;;;5077087;28;20170;-15
2022/03/21 02:51:41;;;;;;;3.17;2.80;;;17.40;50.00;;;;;;5059255;28;20167;-17
2022/03/21 02:54:07;;;;;;;3.50;3.10;;;17.40;50.00;;;;;;5077389;28;20158;-16
2022/03/21 02:56:32;;;;;;;3.20;2.90;;;17.40;50.00;;;;;;5076987;28;20204;-15
2022/03/21 02:58:58;;;;;;;3.00;2.77;;;17.40;50.00;;;;;;5059624;28;20614;-17
2022/03/21 03:01:25;;;;;;;3.80;3.17;;;17.30;50.00;;;;;;5056179;28;20179;-16
2022/03/21 03:03:54;;;;;;;3.13;2.83;;;17.30;50.00;;;;;;5057158;28;20247;-15
2022/03/21 03:06:20;;;;;;;3.30;3.00;;;17.30;50.10;;;;;;5039520;28;20221;-17
2022/03/21 03:08:46;;;;;;;3.43;3.10;;;17.30;50.10;;;;;;5061994;28;20177;-17
2022/03/21 03:11:12;;;;;;;3.10;2.80;;;17.30;50.10;;;;;;5059274;28;20178;-19
2022/03/21 03:13:38;;;;;;;3.00;2.70;;;17.30;50.10;;;;;;5059269;28;20178;-16
2022/03/21 03:16:05;;;;;;;3.30;3.00;;;17.30;50.20;;;;;;5059746;28;20552;-15
2022/03/21 03:18:30;;;;;;;3.30;3.00;;;17.30;50.20;;;;;;5077043;28;20761;-17
2022/03/21 03:20:58;;;;;;;3.53;3.03;;;17.20;50.10;;;;;;5080626;28;20162;-16
2022/03/21 03:23:25;;;;;;;3.53;3.20;;;17.20;50.20;;;;;;5080247;28;20193;-16
2022/03/21 03:26:00;;;;;;;3.40;2.90;;;17.20;50.20;;;;;;5080282;28;20199;-16
2022/03/21 03:28:26;;;;;;;4.10;3.20;;;17.20;50.20;;;;;;5062576;28;20181;-17
2022/03/21 03:30:52;;;;;;;3.50;3.00;;;17.20;50.20;;;;;;5080381;28;20635;-16
2022/03/21 03:33:19;;;;;;;3.93;3.10;;;17.20;50.20;;;;;;5079289;28;20208;-18
2022/03/21 03:35:46;;;;;;;3.13;2.83;;;17.20;50.20;;;;;;5079829;28;20183;-14
2022/03/21 03:38:12;;;;;;;3.00;2.70;;;17.10;50.30;;;;;;5063764;28;20630;-18
2022/03/21 03:40:37;;;;;;;3.27;2.87;;;17.10;50.30;;;;;;5062852;28;20430;-17
2022/03/21 03:43:03;;;;;;;3.67;3.00;;;17.10;50.30;;;;;;5080659;28;20206;-18
2022/03/21 03:45:29;;;;;;;3.00;2.67;;;17.10;50.40;;;;;;5080380;28;20191;-16
2022/03/21 03:47:58;;;;;;;3.60;3.20;;;17.00;50.40;;;;;;5080670;28;20207;-16
2022/03/21 03:50:23;;;;;;;3.40;3.00;;;17.00;50.50;;;;;;5080272;28;20160;-16
2022/03/21 03:52:49;;;;;;;3.23;2.93;;;17.00;50.50;;;;;;5079768;28;20256;-16
2022/03/21 03:55:17;;;;;;;3.67;2.87;;;16.90;50.50;;;;;;5079817;28;20201;-15
2022/03/21 03:57:47;;;;;;;2.97;2.77;;;16.90;51.00;;;;;;5079490;28;20176;-16
2022/03/21 04:00:14;;;;;;;3.30;3.00;;;16.90;50.70;;;;;;5080168;28;20431;-16
2022/03/21 04:05:25;;;;;;;3.00;2.70;;;21.20;45.60;;;;;;5079512;28;20214;-16
2022/03/21 04:07:51;;;;;;;3.63;3.00;;;21.40;44.60;;;;;;5079672;28;20167;-16
2022/03/21 04:10:17;;;;;;;2.90;2.70;;;21.30;44.50;;;;;;5059270;28;20242;-17
2022/03/21 04:12:46;;;;;;;4.27;3.13;;;21.50;44.30;;;;;;5059302;28;20172;-17
2022/03/21 04:15:15;;;;;;;3.20;2.67;;;21.90;43.90;;;;;;5042254;28;20169;-17
2022/03/21 04:17:40;;;;;;;3.10;2.80;;;22.40;43.50;;;;;;5059390;28;20583;-16
2022/03/21 04:20:07;;;;;;;3.40;3.10;;;22.70;43.00;;;;;;5046475;28;20173;-16
2022/03/21 04:22:34;;;;;;;3.40;3.10;;;22.90;43.20;;;;;;5061584;28;20175;-17
2022/03/21 04:25:04;;;;;;;3.17;2.87;;;23.00;42.60;;;;;;5078699;28;20630;-16
2022/03/21 04:27:30;;;;;;;2.90;2.70;;;23.00;42.60;;;;;;5078872;28;20172;-17
2022/03/21 04:29:55;;;;;;;3.30;3.00;;;22.90;42.70;;;;;;5078739;28;20178;-15
2022/03/21 04:32:21;;;;;;;3.43;3.07;;;22.90;42.60;;;;;;5075351;28;20330;-17
2022/03/21 04:34:47;;;;;;;3.73;3.10;;;22.80;42.70;;;;;;5058436;28;20183;-17
2022/03/21 04:37:13;;;;;;;3.57;3.20;;;22.70;42.70;;;;;;5058348;28;20175;-20
2022/03/21 04:39:38;;;;;;;3.20;2.90;;;22.60;42.80;;;;;;5058587;28;20161;-20
2022/03/21 04:42:06;;;;;;;2.97;2.67;;;22.40;43.00;;;;;;5073506;28;20178;-20
2022/03/21 04:44:34;;;;;;;3.57;3.27;;;22.20;43.20;;;;;;5077959;28;20180;-16
2022/03/21 04:47:00;;;;;;;3.97;3.27;;;21.90;43.50;;;;;;5078284;28;20253;-16
2022/03/21 04:49:25;;;;;;;3.30;3.00;;;21.60;43.70;;;;;;5078335;28;20207;-14
2022/03/21 04:51:51;;;;;;;3.20;2.90;;;21.50;44.00;;;;;;5060486;28;20266;-19
2022/03/21 04:54:22;;;;;;;3.30;3.00;;;21.30;44.60;;;;;;5060966;28;20232;-18
2022/03/21 04:56:48;;;;;;;3.30;3.00;;;21.00;44.50;;;;;;5060714;28;20180;-16
2022/03/21 04:59:14;;;;;;;3.37;3.03;;;20.80;44.70;;;;;;5078057;28;20173;-17
2022/03/21 05:01:39;;;;;;;3.07;2.83;;;20.60;44.90;;;;;;5074086;28;20240;-16
2022/03/21 05:04:05;;;;;;;2.73;2.53;;;20.50;45.10;;;;;;5078245;28;20229;-18
2022/03/21 05:06:31;;;;;;;3.40;3.10;;;20.30;45.30;;;;;;5068842;28;20610;-15
2022/03/21 05:08:59;;;;;;;3.37;3.07;;;20.10;45.90;;;;;;5059655;28;20209;-16
2022/03/21 05:11:32;;;;;;;3.40;3.10;;;20.00;45.70;;;;;;5060732;28;20209;-17
2022/03/21 05:13:58;;;;;;;3.10;2.80;;;19.80;45.90;;;;;;5059905;28;20250;-14
2022/03/21 05:16:23;;;;;;;3.13;2.83;;;19.70;46.50;;;;;;5060757;28;20601;-15
2022/03/21 05:18:50;;;;;;;3.63;2.90;;;19.50;46.30;;;;;;5077613;28;20192;-19
2022/03/21 05:21:17;;;;;;;3.20;2.90;;;19.40;46.40;;;;;;5060342;28;20206;-17
2022/03/21 05:31:55;;;;;;;3.90;3.17;;;18.90;47.20;;;;;;5057811;28;20568;-16
2022/03/21 05:37:10;;;;;;;3.83;3.00;;;18.60;47.70;;;;;;5057315;28;20309;-16
2022/03/21 05:40:31;;;;;;;3.07;2.87;;;18.50;47.70;;;;;;5067718;28;20256;-16
2022/03/21 05:42:25;;;;;;;3.40;2.90;;;18.40;47.80;;;;;;5073584;28;20176;-15
2022/03/21 05:44:51;;;;;;;3.60;2.87;;;18.30;48.00;;;;;;5059284;28;20654;-18
2022/03/21 05:47:17;;;;;;;3.10;2.80;;;18.20;48.10;;;;;;5077470;28;20583;-16
2022/03/21 05:49:42;;;;;;;3.40;3.10;;;18.20;48.30;;;;;;5076866;28;20575;-16
2022/03/21 05:52:09;;;;;;;3.37;3.07;;;18.20;48.40;;;;;;5059591;28;20183;-15
2022/03/21 05:54:36;;;;;;;3.60;3.10;;;18.30;48.20;;;;;;5079003;28;20160;-17
2022/03/21 05:57:03;;;;;;;2.80;2.53;;;18.50;48.00;;;;;;5081482;28;20183;-16
2022/03/21 06:02:16;;;;;;;3.20;2.90;;;19.60;46.70;;;;;;5078580;28;20182;-16
2022/03/21 06:04:42;;;;;;;3.40;3.10;;;20.30;45.90;;;;;;5077764;28;20203;-17
2022/03/21 06:07:10;;;;;;;3.10;2.80;;;20.50;45.50;;;;;;5063102;28;20209;-15
2022/03/21 06:09:35;;;;;;;3.40;3.10;;;20.70;45.10;;;;;;5070976;28;20175;-18
2022/03/21 06:12:01;;;;;;;3.20;2.90;;;21.00;44.90;;;;;;5059486;28;20187;-15
2022/03/21 06:14:27;;;;;;;4.10;3.10;;;21.20;44.60;;;;;;5081026;28;20176;-16
2022/03/21 06:16:52;;;;;;;3.50;3.20;;;21.30;44.40;;;;;;5075240;28;20477;-18
2022/03/21 06:19:24;;;;;;;4.00;3.13;;;21.50;44.20;;;;;;5074652;28;20286;-17
2022/03/21 06:21:49;;;;;;;3.00;2.70;;;21.70;44.00;;;;;;5058282;28;20558;-16
2022/03/21 06:24:15;;;;;;;3.13;2.80;;;21.80;43.80;;;;;;5058475;28;20178;-16
2022/03/21 06:26:42;;;;;;;3.27;2.67;;;22.00;43.70;;;;;;5074882;28;20216;-20
2022/03/21 06:29:08;;;;;;;3.17;2.83;;;22.00;43.70;;;;;;5074596;28;20571;-19
2022/03/21 06:31:35;;;;;;;3.07;2.77;;;21.80;43.90;;;;;;5075667;28;20170;-20
2022/03/21 06:34:00;;;;;;;3.70;3.00;;;21.60;44.00;;;;;;5075245;28;20214;-17
2022/03/21 06:36:26;;;;;;;4.03;3.33;;;21.30;44.20;;;;;;5075131;28;20179;-17
2022/03/21 06:38:52;;;;;;;3.50;3.20;;;21.20;44.40;;;;;;5056762;28;20277;-16
2022/03/21 06:41:17;;;;;;;3.40;3.10;;;21.20;44.50;;;;;;5074579;28;20353;-17
2022/03/21 06:43:43;;;;;;;3.53;3.20;;;21.00;44.60;;;;;;5057353;28;20176;-19
2022/03/21 06:46:08;;;;;;;4.07;3.67;;;20.90;44.70;;;;;;5074942;28;20268;-16
2022/03/21 06:48:35;;;;;;;3.57;3.00;;;20.80;44.80;;;;;;5072653;28;20214;-17
2022/03/21 06:51:01;;;;;;;4.43;3.57;;;20.70;44.90;;;;;;5074580;28;20190;-21
2022/03/21 06:53:27;;;;;;;3.40;3.10;;;20.60;45.00;;;;;;5075307;28;20261;-17
2022/03/21 06:55:52;;;;;;;3.40;3.10;;;20.60;45.10;;;;;;5079077;28;20185;-19
2022/03/21 06:58:18;;;;;;;3.60;3.30;;;20.60;45.20;;;;;;5061658;28;20172;-16
2022/03/21 07:00:45;;;;;;;3.90;3.40;;;20.50;45.30;;;;;;5061498;28;20175;-17
2022/03/21 07:03:16;;;;;;;3.67;2.90;;;20.40;45.40;;;;;;5061862;28;20189;-17
2022/03/21 07:05:42;;;;;;;4.87;3.70;;;20.40;45.60;;;;;;5060266;28;20218;-20
2022/03/21 07:08:08;;;;;;;3.90;3.33;;;20.30;45.70;;;;;;5072733;28;20180;-19
2022/03/21 07:10:34;;;;;;;4.27;3.50;;;20.30;45.80;;;;;;5078382;28;20258;-16
2022/03/21 07:13:07;;;;;;;4.50;3.33;;;20.30;45.90;;;;;;5079106;28;20200;-17
2022/03/21 07:15:33;;;;;;;3.70;3.40;;;20.20;46.00;;;;;;5078253;28;20214;-19
2022/03/21 07:17:59;;;;;;;4.13;3.50;;;20.20;46.10;;;;;;5077919;28;20207;-17
2022/03/21 07:20:25;;;;;;;4.00;3.60;;;20.20;46.20;;;;;;5078777;28;20156;-19
2022/03/21 07:22:53;;;;;;;4.10;3.53;;;20.20;46.30;;;;;;5077740;28;20194;-17
2022/03/21 07:25:19;;;;;;;6.07;3.83;;;20.10;46.30;;;;;;5060683;28;20214;-20
2022/03/21 07:27:45;;;;;;;5.03;3.70;;;20.10;46.40;;;;;;5078367;28;20170;-18
2022/03/21 07:30:14;;;;;;;4.50;3.80;;;20.10;46.40;;;;;;5078502;28;20245;-21
2022/03/21 07:32:41;;;;;;;4.40;4.00;;;20.10;46.40;;;;;;5078337;28;20178;-20
2022/03/21 07:35:07;;;;;;;4.60;4.20;;;20.10;46.40;;;;;;5060405;28;20174;-20
2022/03/21 07:37:59;;;;;;;5.80;4.57;;;20.10;46.40;;;;;;5078325;28;20207;-18
2022/03/21 07:40:26;;;;;;;7.70;4.17;;;20.10;46.40;;;;;;5075976;28;20240;-17
2022/03/21 07:42:52;;;;;;;6.53;4.47;;;20.10;46.50;;;;;;5060516;28;20247;-22
2022/03/21 07:48:04;;;;;;;5.27;4.53;;;20.20;46.50;;;;;;5077886;28;20217;-22
2022/03/21 07:50:30;;;;;;;5.27;4.57;;;20.30;46.40;;;;;;5077324;28;20180;-20
2022/03/21 07:52:59;;;;;;;9.67;4.87;;;20.50;46.30;;;;;;5077633;28;20479;-21
2022/03/21 07:55:25;;;;;;;5.03;4.53;;;20.80;46.00;;;;;;5077351;28;20181;-18
2022/03/21 07:57:57;;;;;;;6.10;4.90;;;21.10;45.60;;;;;;5076932;28;20716;-19
2022/03/21 08:00:26;;;;;;;5.53;4.93;;;21.50;45.20;;;;;;5072506;28;20221;-19
2022/03/21 08:02:52;;;;;;;7.43;5.17;;;21.80;44.90;;;;;;5059634;28;20712;-20
2022/03/21 08:05:17;;;;;;;7.70;5.87;;;22.00;45.00;;;;;;5041167;28;20730;-17
2022/03/21 08:07:45;;;;;;;7.53;5.27;;;22.20;44.40;;;;;;5059518;28;20179;-21
2022/03/21 08:10:11;;;;;;;7.70;6.23;;;22.40;44.10;;;;;;5059316;28;20176;-20
2022/03/21 08:12:42;;;;;;;7.47;5.33;;;22.60;43.90;;;;;;5076972;28;20183;-18
2022/03/21 08:15:11;;;;;;;8.50;5.60;;;22.70;43.70;;;;;;5060294;28;20179;-20
2022/03/21 08:17:51;;;;;;;7.13;5.50;;;22.70;43.70;;;;;;5059886;28;20175;-20
2022/03/21 08:20:20;;;;;;;7.93;6.00;;;22.50;44.20;;;;;;5076941;28;20186;-19
2022/03/21 08:22:47;;;;;;;6.97;6.20;;;22.40;43.90;;;;;;5076799;28;20209;-18
2022/03/21 08:25:17;;;;;;;6.90;6.20;;;22.30;44.00;;;;;;5059289;28;20211;-17
2022/03/21 08:27:46;;;;;;;10.87;6.20;;;22.20;44.10;;;;;;5077164;28;20152;-19
2022/03/21 08:30:13;;;;;;;6.97;5.83;;;22.20;44.20;;;;;;5077453;28;20172;-16
2022/03/21 08:32:39;;;;;;;7.63;5.97;;;22.10;44.30;;;;;;5059356;28;20176;-17
2022/03/21 08:35:06;;;;;;;8.07;6.40;;;22.00;44.40;;;;;;5059261;28;20655;-21
2022/03/21 08:37:31;;;;;;;7.53;6.03;;;22.00;44.50;;;;;;5076938;28;20183;-20
2022/03/21 08:39:58;;;;;;;8.40;6.00;;;21.90;44.60;;;;;;5076979;28;20186;-21
2022/03/21 08:42:29;;;;;;;6.77;6.07;;;21.80;44.60;;;;;;5053060;28;20187;-21
2022/03/21 08:44:55;;;;;;;8.93;6.37;;;21.80;44.70;;;;;;5077107;28;20453;-19
2022/03/21 08:47:20;;;;;;;7.80;6.10;;;21.80;44.80;;;;;;5058945;28;20233;-21
2022/03/21 08:49:46;;;;;;;7.77;6.50;;;21.70;44.70;;;;;;5080141;28;20226;-19
2022/03/21 08:52:13;;;;;;;7.93;6.10;;;21.70;44.80;;;;;;5093351;28;20171;-20
2022/03/21 08:54:39;;;;;;;8.10;6.60;;;21.70;44.80;;;;;;5084435;28;20179;-21
2022/03/21 08:57:05;;;;;;;7.40;6.43;;;21.70;44.90;;;;;;5083973;28;20178;-21
2022/03/21 08:59:33;;;;;;;7.77;6.40;;;21.60;44.80;;;;;;5087288;28;20178;-21
2022/03/21 09:01:59;;;;;;;9.40;6.47;;;21.60;44.90;;;;;;5064368;28;20187;-23
2022/03/21 09:04:28;;;;;;;7.60;6.23;;;21.60;44.80;;;;;;5058244;28;20195;-23
2022/03/21 09:06:54;;;;;;;8.50;6.33;;;21.70;44.90;;;;;;5060393;28;20735;-23
2022/03/21 09:09:20;;;;;;;8.47;6.37;;;21.70;44.90;;;;;;5071102;28;20194;-24
2022/03/21 09:11:49;;;;;;;7.10;6.40;;;21.70;44.90;;;;;;5058469;28;20261;-22
2022/03/21 09:14:16;;;;;;;8.37;6.30;;;21.60;44.90;;;;;;5075078;28;20172;-24
2022/03/21 09:16:42;;;;;;;6.97;6.27;;;21.70;44.90;;;;;;5075616;28;20199;-21
2022/03/21 09:19:09;;;;;;;10.70;6.80;;;21.70;44.90;;;;;;5075529;28;20480;-22
2022/03/21 09:21:35;;;;;;;7.10;6.50;;;21.70;44.90;;;;;;5070050;28;20193;-24
2022/03/21 09:24:06;;;;;;;7.73;6.90;;;21.70;44.80;;;;;;5085192;28;20266;-20
2022/03/21 09:26:31;;;;;;;7.23;6.53;;;21.80;44.90;;;;;;5076673;28;20293;-20
2022/03/21 09:29:02;;;;;;;9.53;6.83;;;21.80;44.80;;;;;;5058848;28;20203;-24
2022/03/21 09:31:31;;;;;;;7.60;6.67;;;21.80;44.70;;;;;;5075675;28;20183;-23
2022/03/21 09:33:58;;;;;;;8.23;6.30;;;21.80;44.70;;;;;;5058714;28;20195;-20
2022/03/21 09:36:24;;;;;;;6.70;6.00;;;21.60;44.70;;;;;;5075163;28;20183;-22
2022/03/21 09:38:49;;;;;;;7.63;6.40;;;21.40;44.80;;;;;;5075604;28;20180;-22
2022/03/21 09:41:22;;;;;;;8.30;6.60;;;21.20;45.10;;;;;;5075864;28;20182;-22
2022/03/21 09:43:53;;;;;;;7.47;6.27;;;21.00;45.40;;;;;;5058887;28;20179;-19
2022/03/21 09:46:20;;;;;;;6.90;6.27;;;20.80;45.60;;;;;;5057890;28;20207;-22
2022/03/21 09:48:50;;;;;;;7.40;6.27;;;20.60;45.80;;;;;;5072240;28;20172;-22
2022/03/21 09:51:28;;;;;;;7.27;6.43;;;20.60;45.90;;;;;;5075034;28;20572;-20
2022/03/21 09:53:55;;;;;;;8.23;6.50;;;20.60;45.90;;;;;;5076132;28;20444;-23
2022/03/21 09:56:21;;;;;;;7.47;6.77;;;20.60;45.90;;;;;;5052411;28;20183;-22
2022/03/21 09:58:50;;;;;;;7.17;6.43;;;20.60;46.10;;;;;;5068051;28;20549;-22
2022/03/21 10:01:18;;;;;;;8.00;6.57;;;20.50;46.10;;;;;;5047481;28;20180;-21
2022/03/21 10:03:44;;;;;;;9.00;6.87;;;20.50;46.10;;;;;;5052960;28;20187;-23
2022/03/21 10:06:28;;;;;;;8.87;6.90;;;20.50;46.20;;;;;;5069042;28;20195;-23
2022/03/21 10:09:19;;;;;;;9.03;6.50;;;20.50;46.30;;;;;;5067936;28;20178;-22
2022/03/21 10:11:55;;;;;;;8.00;6.83;;;20.50;46.40;;;;;;5041905;28;20175;-22
2022/03/21 10:14:32;;;;;;;7.07;6.37;;;20.40;46.40;;;;;;5064695;28;20274;-22
2022/03/21 10:17:15;;;;;;;9.77;7.00;;;20.50;46.30;;;;;;5066335;28;20205;-23
2022/03/21 10:19:42;;;;;;;18.73;6.97;;;20.60;46.40;;;;;;5064356;28;20233;-23
2022/03/21 10:22:09;;;;;;;8.47;6.70;;;20.80;47.50;;;;;;5066979;28;20735;-21
2022/03/21 10:24:43;;;;;;;7.97;7.13;;;21.00;48.10;;;;;;5066210;28;20183;-21
2022/03/21 10:27:29;;;;;;;14.13;7.47;;;21.10;47.70;;;;;;5047414;28;20357;-23
2022/03/21 10:30:00;;;;;;;10.90;7.50;;;21.10;47.60;;;;;;5063966;28;20796;-23
2022/03/21 10:32:31;;;;;;;9.80;7.70;;;21.20;47.70;;;;;;5065739;28;20463;-21
2022/03/21 10:35:10;;;;;;;11.33;7.20;;;21.20;47.60;;;;;;5049113;28;20330;-23
2022/03/21 10:37:47;;;;;;;10.53;7.70;;;21.30;47.80;;;;;;5066684;28;20259;-23
2022/03/21 10:40:27;;;;;;;12.10;7.70;;;21.30;47.80;;;;;;5067758;28;20202;-22
2022/03/21 10:43:10;;;;;;;12.80;7.40;;;21.30;48.10;;;;;;5060801;28;20179;-23
2022/03/21 10:45:38;;;;;;;12.10;7.80;;;21.30;47.90;;;;;;5067439;28;20199;-23
2022/03/21 10:48:06;;;;;;;10.67;7.67;;;21.30;47.70;;;;;;5048699;28;20168;-23
2022/03/21 10:50:41;;;;;;;10.13;7.90;;;21.40;47.70;;;;;;5049232;28;20300;-19
2022/03/21 10:53:08;;;;;;;12.73;8.07;;;21.40;47.50;;;;;;5044424;28;20175;-20
2022/03/21 10:55:34;;;;;;;9.53;7.87;;;21.40;47.40;;;;;;5044322;28;20278;-21
2022/03/21 10:58:00;;;;;;;10.90;7.70;;;21.40;47.30;;;;;;5045777;28;20286;-19
2022/03/21 11:00:26;;;;;;;12.20;7.27;;;21.40;47.70;;;;;;5044404;28;20176;-23
2022/03/21 11:03:05;;;;;;;13.67;7.70;;;21.40;47.40;;;;;;5065342;28;20314;-18
2022/03/21 11:05:34;;;;;;;10.23;7.50;;;21.50;47.10;;;;;;5067288;28;20260;-19
2022/03/21 11:08:01;;;;;;;10.27;7.27;;;21.50;46.80;;;;;;5067255;28;20267;-20
2022/03/21 11:10:27;;;;;;;9.23;7.33;;;21.50;46.80;;;;;;5067161;28;20179;-22
2022/03/21 11:12:57;;;;;;;8.37;7.57;;;21.50;46.80;;;;;;5057940;28;20198;-22
2022/03/21 11:15:24;;;;;;;10.57;7.73;;;21.60;47.00;;;;;;5048882;28;20482;-20
2022/03/21 11:17:55;;;;;;;8.53;6.67;;;21.60;46.70;;;;;;5065690;28;20173;-21
2022/03/21 11:20:20;;;;;;;9.93;7.63;;;21.60;46.90;;;;;;5048453;28;20179;-20
2022/03/21 11:22:47;;;;;;;13.07;6.73;;;21.70;46.80;;;;;;5067138;28;20506;-22
2022/03/21 11:25:17;;;;;;;10.33;7.57;;;21.70;46.60;;;;;;5066186;28;20556;-19
2022/03/21 11:28:01;;;;;;;10.70;7.30;;;21.60;46.40;;;;;;5063029;28;20176;-22
2022/03/21 11:30:54;;;;;;;10.90;6.90;;;21.50;46.60;;;;;;5040655;28;20175;-20
2022/03/21 11:33:49;;;;;;;9.73;6.93;;;21.50;47.00;;;;;;5063936;28;20181;-19
2022/03/21 11:36:15;;;;;;;10.63;6.80;;;21.60;47.10;;;;;;5048880;28;20187;-18
2022/03/21 11:38:46;;;;;;;8.60;6.90;;;21.70;47.00;;;;;;5049364;28;20172;-19
2022/03/21 11:41:21;;;;;;;10.27;7.47;;;21.70;46.80;;;;;;5068106;28;20237;-21
2022/03/21 11:44:08;;;;;;;9.47;6.97;;;21.70;46.50;;;;;;5072047;28;20166;-21
2022/03/21 11:46:35;;;;;;;11.67;7.10;;;21.70;46.90;;;;;;5050192;28;20275;-21
2022/03/21 11:49:25;;;;;;;10.10;6.93;;;21.70;46.60;;;;;;5067214;28;20179;-19
2022/03/21 11:52:02;;;;;;;10.30;7.00;;;21.60;46.40;;;;;;5050644;28;20598;-22
2022/03/21 11:54:37;;;;;;;12.30;7.53;;;21.60;45.90;;;;;;5076425;28;20159;-22
2022/03/21 11:57:31;;;;;;;10.73;6.70;;;21.50;45.80;;;;;;5052978;28;20197;-17
2022/03/21 11:59:59;;;;;;;10.80;6.60;;;21.50;46.40;;;;;;5044967;28;20190;-21
2022/03/21 12:02:25;;;;;;;12.83;6.97;;;21.50;46.50;;;;;;5068495;28;20183;-22
2022/03/21 12:04:58;;;;;;;11.07;7.00;;;21.40;46.80;;;;;;5070549;28;20255;-17
2022/03/21 12:07:23;;;;;;;9.90;6.70;;;21.30;47.00;;;;;;5055713;28;20201;-20
2022/03/21 12:09:53;;;;;;;11.33;6.87;;;21.20;47.10;;;;;;5076693;28;20243;-20
2022/03/21 12:12:20;;;;;;;8.63;6.93;;;21.10;47.10;;;;;;5071972;28;20201;-20
2022/03/21 12:14:48;;;;;;;8.80;6.00;;;21.10;47.20;;;;;;5055632;28;20766;-18
2022/03/21 12:17:28;;;;;;;10.43;7.10;;;21.10;47.40;;;;;;5057178;28;20286;-22
2022/03/21 12:20:07;;;;;;;10.70;6.70;;;21.00;47.40;;;;;;5072842;28;20203;-19
2022/03/21 12:22:34;;;;;;;8.57;6.27;;;21.00;47.50;;;;;;5049199;28;20191;-20
2022/03/21 12:25:11;;;;;;;10.87;6.83;;;20.90;47.50;;;;;;5067261;28;20230;-19
2022/03/21 12:27:57;;;;;;;7.67;6.30;;;20.90;47.60;;;;;;5072767;28;20258;-20
2022/03/21 12:30:30;;;;;;;7.60;6.30;;;20.90;47.70;;;;;;5055940;28;20176;-20
2022/03/21 12:33:15;;;;;;;7.90;5.93;;;20.90;47.70;;;;;;5084985;28;20175;-21
2022/03/21 12:35:45;;;;;;;8.80;5.93;;;20.90;47.80;;;;;;5089799;28;20171;-20
2022/03/21 12:38:22;;;;;;;8.63;6.30;;;20.90;47.80;;;;;;5072539;28;20168;-20
2022/03/21 12:40:51;;;;;;;9.80;5.83;;;20.80;47.70;;;;;;5069368;28;20438;-20
2022/03/21 12:43:23;;;;;;;7.87;5.90;;;20.80;47.80;;;;;;5051233;28;20458;-20
2022/03/21 12:46:20;;;;;;;6.83;6.10;;;20.80;47.90;;;;;;5087382;28;20207;-20
2022/03/21 12:48:52;;;;;;;7.13;5.50;;;20.70;47.80;;;;;;5083266;28;20277;-22
2022/03/21 12:51:29;;;;;;;8.87;5.80;;;20.70;47.90;;;;;;5061577;28;20178;-17
2022/03/21 12:53:56;;;;;;;7.37;5.97;;;20.70;47.90;;;;;;5079009;28;20174;-22
2022/03/21 12:56:24;;;;;;;7.67;5.70;;;20.70;48.00;;;;;;5085986;28;20190;-22
2022/03/21 12:58:59;;;;;;;7.03;6.03;;;20.70;48.00;;;;;;5077893;28;20175;-20
2022/03/21 13:01:25;;;;;;;7.40;5.83;;;20.70;48.10;;;;;;5069265;28;20494;-19
2022/03/21 13:10:32;;;;;;;6.70;5.80;;;20.60;48.00;;;;;;5068566;28;20466;-19
2022/03/21 13:12:34;;;;;;;7.30;5.90;;;20.60;48.10;;;;;;5068283;28;20174;-18
2022/03/21 13:15:05;;;;;;;8.07;6.30;;;20.60;48.10;;;;;;5070308;28;20293;-21
2022/03/21 13:17:51;;;;;;;6.97;6.10;;;20.60;48.10;;;;;;5063119;28;20373;-17
2022/03/21 13:20:29;;;;;;;6.17;5.50;;;20.60;48.10;;;;;;5079677;28;20727;-17
2022/03/21 13:22:57;;;;;;;7.77;5.90;;;20.60;48.20;;;;;;5072838;28;20358;-20